createdAt,value
2023-03-19T00:02:02.092Z,10.30
2023-03-19T00:04:33.122Z,16.33
2023-03-19T00:07:00.174Z,13.48
2023-03-19T00:09:27.471Z,17.55
2023-03-19T00:11:54.610Z,17.52
2023-03-19T00:14:21.653Z,15.93
2023-03-19T00:16:48.715Z,16.35
2023-03-19T00:19:15.828Z,17.63
2023-03-19T00:21:42.946Z,15.65
2023-03-19T00:24:10.416Z,16.58
2023-03-19T00:26:37.558Z,15.38
2023-03-19T00:29:04.896Z,16.27
2023-03-19T00:31:31.961Z,13.43
2023-03-19T00:33:59.142Z,17.85
2023-03-19T00:36:27.117Z,18.05
2023-03-19T00:38:54.152Z,17.40
2023-03-19T00:41:21.935Z,16.60
2023-03-19T00:43:52.749Z,19.45
2023-03-19T00:46:19.897Z,18.27
2023-03-19T00:48:46.953Z,15.48
2023-03-19T00:51:14.043Z,13.23
2023-03-19T00:53:42.173Z,16.73
2023-03-19T00:56:12.791Z,18.90
2023-03-19T01:01:08.775Z,12.38
2023-03-19T01:03:36.074Z,15.85
2023-03-19T01:06:03.328Z,14.82
2023-03-19T01:08:30.388Z,19.75
2023-03-19T01:10:57.528Z,13.50
2023-03-19T01:13:24.609Z,14.52
2023-03-19T01:15:52.459Z,15.93
2023-03-19T01:18:19.554Z,12.43
2023-03-19T01:20:46.592Z,13.60
2023-03-19T01:23:13.644Z,18.90
2023-03-19T01:25:40.765Z,13.13
2023-03-19T01:28:07.840Z,13.65
2023-03-19T01:30:35.209Z,14.13
2023-03-19T01:33:02.507Z,11.80
2023-03-19T01:35:29.601Z,13.23
2023-03-19T01:37:56.656Z,19.17
2023-03-19T01:40:23.733Z,13.10
2023-03-19T01:42:56.640Z,18.45
2023-03-19T01:45:30.063Z,14.65
2023-03-19T01:47:57.104Z,20.25
2023-03-19T01:50:25.890Z,14.32
2023-03-19T01:52:52.951Z,16.10
2023-03-19T01:55:20.103Z,15.07
2023-03-19T01:57:47.305Z,15.57
2023-03-19T02:00:14.586Z,16.70
2023-03-19T02:02:41.793Z,15.45
2023-03-19T02:05:10.666Z,13.38
2023-03-19T02:07:38.093Z,13.15
2023-03-19T02:10:07.216Z,14.05
2023-03-19T02:12:34.403Z,14.80
2023-03-19T02:15:01.516Z,15.55
2023-03-19T02:17:28.708Z,14.98
2023-03-19T02:20:01.075Z,14.48
2023-03-19T02:22:28.550Z,19.48
2023-03-19T02:25:08.379Z,16.67
2023-03-19T02:27:35.666Z,14.18
2023-03-19T02:30:17.779Z,12.27
2023-03-19T02:32:44.897Z,10.88
2023-03-19T02:35:12.029Z,9.48
2023-03-19T02:37:39.051Z,17.63
2023-03-19T02:40:12.792Z,12.40
2023-03-19T02:42:39.820Z,13.98
2023-03-19T02:45:07.331Z,16.65
2023-03-19T02:47:34.372Z,18.45
2023-03-19T02:50:01.377Z,18.13
2023-03-19T02:52:28.458Z,15.60
2023-03-19T02:54:55.493Z,18.17
2023-03-19T02:57:22.539Z,18.02
2023-03-19T02:59:49.577Z,20.42
2023-03-19T03:02:16.682Z,19.25
2023-03-19T03:04:43.874Z,14.68
2023-03-19T03:07:11.489Z,16.70
2023-03-19T03:09:38.560Z,19.80
2023-03-19T03:12:06.209Z,16.63
2023-03-19T03:14:33.293Z,15.00
2023-03-19T03:17:00.341Z,19.63
2023-03-19T03:19:27.763Z,13.77
2023-03-19T03:21:54.805Z,12.80
2023-03-19T03:24:22.012Z,13.73
2023-03-19T03:26:49.079Z,11.85
2023-03-19T03:29:16.667Z,12.65
2023-03-19T03:31:43.797Z,14.60
2023-03-19T03:34:10.862Z,16.35
2023-03-19T03:36:38.607Z,17.45
2023-03-19T03:39:05.766Z,21.70
2023-03-19T03:41:33.184Z,15.68
2023-03-19T03:44:00.257Z,18.65
2023-03-19T03:46:27.351Z,21.98
2023-03-19T03:48:54.862Z,24.60
2023-03-19T03:51:22.172Z,24.83
2023-03-19T03:53:49.227Z,24.73
2023-03-19T03:56:16.426Z,23.58
2023-03-19T03:58:43.456Z,20.65
2023-03-19T04:01:13.929Z,20.05
2023-03-19T04:06:08.782Z,21.45
2023-03-19T04:08:35.934Z,23.60
2023-03-19T04:11:06.709Z,22.10
2023-03-19T04:13:36.719Z,22.23
2023-03-19T04:16:06.936Z,20.10
2023-03-19T04:18:34.110Z,18.13
2023-03-19T04:21:01.400Z,22.08
2023-03-19T04:23:28.619Z,19.30
2023-03-19T04:25:59.841Z,17.80
2023-03-19T04:28:27.341Z,20.83
2023-03-19T04:30:58.999Z,19.65
2023-03-19T04:33:26.077Z,20.00
2023-03-19T04:35:54.527Z,21.20
2023-03-19T04:38:21.841Z,21.17
2023-03-19T04:40:49.126Z,19.88
2023-03-19T04:43:16.175Z,23.52
2023-03-19T04:45:43.270Z,18.33
2023-03-19T04:48:11.038Z,21.58
2023-03-19T04:50:38.393Z,18.77
2023-03-19T04:53:05.409Z,22.27
2023-03-19T04:55:32.565Z,20.15
2023-03-19T04:57:59.654Z,20.33
2023-03-19T05:00:31.563Z,23.23
2023-03-19T05:02:59.372Z,22.83
2023-03-19T05:05:26.409Z,22.08
2023-03-19T05:07:53.476Z,24.75
2023-03-19T05:10:21.032Z,19.80
2023-03-19T05:12:48.074Z,25.88
2023-03-19T05:15:15.540Z,21.10
2023-03-19T05:17:42.914Z,21.55
2023-03-19T05:20:11.791Z,22.15
2023-03-19T05:22:39.020Z,25.92
2023-03-19T05:25:06.886Z,23.95
2023-03-19T05:27:33.968Z,22.33
2023-03-19T05:30:01.522Z,24.73
2023-03-19T05:32:29.417Z,27.52
2023-03-19T05:34:56.479Z,23.85
2023-03-19T05:37:23.566Z,21.45
2023-03-19T05:39:51.391Z,27.38
2023-03-19T05:42:18.439Z,29.70
2023-03-19T05:44:45.486Z,23.35
2023-03-19T05:47:12.660Z,22.52
2023-03-19T05:49:39.731Z,24.40
2023-03-19T05:52:07.695Z,21.92
2023-03-19T05:54:34.765Z,26.75
2023-03-19T05:57:03.474Z,20.65
2023-03-19T05:59:31.859Z,21.58
2023-03-19T06:01:58.896Z,23.25
2023-03-19T06:04:26.101Z,26.45
2023-03-19T06:06:53.207Z,30.20
2023-03-19T06:09:20.286Z,24.85
2023-03-19T06:11:47.352Z,25.63
2023-03-19T06:14:14.487Z,23.23
2023-03-19T06:16:41.573Z,21.10
2023-03-19T06:19:08.902Z,25.95
2023-03-19T06:21:35.977Z,22.48
2023-03-19T06:24:03.198Z,21.88
2023-03-19T06:26:30.476Z,22.35
2023-03-19T06:28:57.522Z,25.33
2023-03-19T06:31:24.657Z,21.70
2023-03-19T06:33:51.897Z,21.20
2023-03-19T06:36:18.974Z,17.48
2023-03-19T06:38:46.655Z,21.98
2023-03-19T06:41:13.842Z,20.92
2023-03-19T06:43:42.119Z,17.67
2023-03-19T06:46:11.339Z,23.05
2023-03-19T06:48:38.808Z,17.90
2023-03-19T06:51:06.059Z,19.70
2023-03-19T06:53:33.197Z,21.00
2023-03-19T06:56:01.367Z,18.00
2023-03-19T06:58:28.573Z,14.43
2023-03-19T07:00:55.820Z,20.63
2023-03-19T07:03:23.144Z,20.40
2023-03-19T07:05:53.220Z,16.10
2023-03-19T07:08:20.383Z,18.98
2023-03-19T07:10:47.423Z,14.13
2023-03-19T07:13:14.652Z,21.92
2023-03-19T07:15:41.724Z,22.58
2023-03-19T07:18:08.750Z,15.18
2023-03-19T07:20:36.360Z,18.77
2023-03-19T07:23:03.684Z,18.83
2023-03-19T07:25:30.722Z,18.10
2023-03-19T07:27:57.827Z,15.50
2023-03-19T07:30:24.924Z,21.42
2023-03-19T07:32:52.066Z,17.48
2023-03-19T07:35:19.163Z,16.25
2023-03-19T07:37:46.802Z,16.98
2023-03-19T07:40:13.928Z,21.92
2023-03-19T07:42:41.877Z,21.65
2023-03-19T07:45:10.036Z,16.88
2023-03-19T07:47:37.158Z,20.30
2023-03-19T07:50:04.289Z,15.52
2023-03-19T07:52:31.402Z,18.98
2023-03-19T07:54:58.463Z,16.48
2023-03-19T07:57:26.235Z,16.40
2023-03-19T07:59:53.792Z,15.30
2023-03-19T08:02:22.977Z,18.17
2023-03-19T08:04:50.837Z,17.75
2023-03-19T08:07:18.120Z,16.95
2023-03-19T08:09:45.258Z,15.77
2023-03-19T08:12:12.404Z,16.33
2023-03-19T08:14:39.459Z,17.50
2023-03-19T08:17:06.580Z,17.73
2023-03-19T08:19:33.671Z,18.33
2023-03-19T08:22:00.799Z,18.38
2023-03-19T08:24:28.122Z,18.30
2023-03-19T08:26:55.323Z,15.95
2023-03-19T08:29:23.633Z,13.93
2023-03-19T08:31:50.768Z,16.30
2023-03-19T08:34:17.810Z,16.80
2023-03-19T08:36:44.872Z,18.85
2023-03-19T08:39:11.913Z,17.70
2023-03-19T08:41:38.949Z,17.35
2023-03-19T08:44:06.153Z,15.60
2023-03-19T08:46:33.753Z,15.18
2023-03-19T08:49:01.011Z,20.15
2023-03-19T08:51:30.327Z,20.08
2023-03-19T08:53:57.362Z,17.20
2023-03-19T08:56:24.416Z,14.48
2023-03-19T08:58:51.528Z,16.40
2023-03-19T09:01:18.709Z,13.70
2023-03-19T09:03:45.930Z,16.58
2023-03-19T09:06:14.382Z,14.38
2023-03-19T09:08:42.076Z,12.60
2023-03-19T09:11:10.306Z,15.32
2023-03-19T09:13:37.449Z,15.43
2023-03-19T09:16:04.676Z,15.73
2023-03-19T09:18:32.499Z,16.08
2023-03-19T09:20:59.591Z,21.30
2023-03-19T09:23:26.663Z,13.65
2023-03-19T09:25:53.751Z,15.13
2023-03-19T09:28:21.157Z,12.80
2023-03-19T09:30:48.726Z,13.40
2023-03-19T09:33:16.527Z,12.20
2023-03-19T09:35:43.873Z,13.35
2023-03-19T09:38:11.039Z,12.07
2023-03-19T09:40:48.716Z,10.15
2023-03-19T09:43:18.620Z,13.52
2023-03-19T09:45:46.589Z,15.32
2023-03-19T09:48:15.763Z,9.70
2023-03-19T09:50:42.794Z,12.23
2023-03-19T09:53:13.718Z,14.88
2023-03-19T09:55:45.545Z,13.30
2023-03-19T09:58:19.423Z,18.02
2023-03-19T10:00:52.804Z,11.57
2023-03-19T10:03:32.162Z,11.90
2023-03-19T10:05:59.252Z,14.70
2023-03-19T10:08:40.625Z,13.85
2023-03-19T10:11:26.493Z,10.50
2023-03-19T10:14:05.593Z,11.50
2023-03-19T10:16:32.802Z,11.02
2023-03-19T10:19:00.628Z,10.77
2023-03-19T10:21:45.009Z,11.00
2023-03-19T10:24:13.011Z,11.73
2023-03-19T10:26:40.623Z,15.02
2023-03-19T10:29:12.337Z,16.80
2023-03-19T10:31:39.490Z,12.45
2023-03-19T10:34:32.618Z,8.57
2023-03-19T10:37:00.915Z,10.55
2023-03-19T10:39:28.377Z,9.40
2023-03-19T10:41:59.582Z,10.80
2023-03-19T10:44:30.902Z,10.48
2023-03-19T10:46:58.840Z,9.35
2023-03-19T10:49:26.484Z,8.77
2023-03-19T10:51:53.627Z,9.52
2023-03-19T10:54:24.443Z,10.02
2023-03-19T10:56:51.729Z,11.13
2023-03-19T10:59:23.644Z,6.97
2023-03-19T11:01:50.716Z,8.38
2023-03-19T11:04:23.958Z,5.95
2023-03-19T11:06:51.930Z,8.07
2023-03-19T11:09:28.278Z,8.95
2023-03-19T11:11:57.473Z,5.85
2023-03-19T11:14:24.534Z,16.85
2023-03-19T11:16:58.951Z,10.55
2023-03-19T11:19:28.144Z,9.20
2023-03-19T11:22:02.619Z,5.63
2023-03-19T11:24:32.600Z,5.75
2023-03-19T11:27:00.453Z,7.13
2023-03-19T11:29:28.222Z,7.85
2023-03-19T11:32:20.822Z,6.68
2023-03-19T11:34:52.584Z,6.65
2023-03-19T11:37:32.495Z,8.32
2023-03-19T11:40:00.991Z,7.70
2023-03-19T11:42:37.340Z,7.60
2023-03-19T11:45:16.533Z,6.28
2023-03-19T11:47:50.278Z,8.20
2023-03-19T11:50:23.553Z,9.52
2023-03-19T11:52:56.983Z,6.60
2023-03-19T11:55:29.101Z,7.18
2023-03-19T11:57:56.612Z,8.20
2023-03-19T12:00:29.573Z,6.07
2023-03-19T12:03:08.957Z,10.65
2023-03-19T12:05:54.927Z,9.05
2023-03-19T12:08:25.005Z,12.75
2023-03-19T12:11:01.253Z,8.88
2023-03-19T12:13:34.619Z,11.98
2023-03-19T12:16:05.766Z,13.85
2023-03-19T12:18:54.036Z,11.90
2023-03-19T12:21:40.470Z,10.32
2023-03-19T12:24:17.586Z,13.73
2023-03-19T12:26:56.532Z,11.82
2023-03-19T12:29:23.604Z,10.45
2023-03-19T12:32:09.709Z,12.82
2023-03-19T12:34:36.787Z,14.80
2023-03-19T12:37:14.276Z,9.75
2023-03-19T12:39:43.383Z,10.82
2023-03-19T12:42:11.410Z,8.18
2023-03-19T12:44:39.994Z,11.60
2023-03-19T12:47:25.994Z,10.10
2023-03-19T12:50:05.463Z,8.38
2023-03-19T12:52:42.205Z,7.55
2023-03-19T12:55:17.607Z,7.00
2023-03-19T12:57:47.807Z,6.97
2023-03-19T13:00:17.656Z,9.35
2023-03-19T13:02:47.966Z,6.70
2023-03-19T13:05:17.639Z,7.35
2023-03-19T13:07:49.881Z,7.20
2023-03-19T13:10:19.076Z,6.35
2023-03-19T13:12:46.209Z,7.82
2023-03-19T13:15:19.415Z,5.93
2023-03-19T13:17:50.256Z,7.35
2023-03-19T13:20:29.613Z,6.15
2023-03-19T13:22:57.771Z,6.80
2023-03-19T13:25:26.264Z,3.60
2023-03-19T13:27:54.551Z,6.43
2023-03-19T13:30:22.046Z,4.68
2023-03-19T13:33:02.403Z,3.28
2023-03-19T13:35:36.474Z,5.22
2023-03-19T13:38:09.476Z,4.88
2023-03-19T13:40:37.883Z,5.88
2023-03-19T13:43:04.925Z,4.95
2023-03-19T13:45:38.453Z,4.88
2023-03-19T13:48:25.577Z,5.22
2023-03-19T13:50:56.933Z,6.38
2023-03-19T13:53:33.921Z,3.10
2023-03-19T13:56:01.679Z,2.83
2023-03-19T13:58:47.490Z,4.97
2023-03-19T14:01:35.505Z,3.45
2023-03-19T14:04:06.361Z,3.08
2023-03-19T14:06:40.528Z,2.50
2023-03-19T14:09:08.664Z,1.60
2023-03-19T14:11:36.900Z,1.73
2023-03-19T14:14:05.469Z,3.47
2023-03-19T14:16:39.172Z,2.08
2023-03-19T14:19:11.333Z,1.25
2023-03-19T14:21:46.824Z,2.28
2023-03-19T14:27:19.032Z,1.33
2023-03-19T14:29:46.139Z,1.95
2023-03-19T14:32:17.935Z,0.90
2023-03-19T14:34:45.195Z,1.65
2023-03-19T14:37:25.363Z,1.73
2023-03-19T14:39:59.213Z,1.08
2023-03-19T14:42:27.674Z,4.95
2023-03-19T14:44:54.704Z,2.05
2023-03-19T14:47:24.636Z,1.85
2023-03-19T14:49:57.415Z,2.47
2023-03-19T14:52:24.754Z,1.83
2023-03-19T14:54:59.520Z,2.45
2023-03-19T14:57:27.639Z,1.13
2023-03-19T14:59:55.068Z,0.90
2023-03-19T15:02:22.134Z,1.58
2023-03-19T15:04:49.308Z,1.55
2023-03-19T15:07:20.713Z,2.15
2023-03-19T15:09:54.877Z,1.08
2023-03-19T15:12:41.897Z,1.75
2023-03-19T15:15:09.676Z,0.65
2023-03-19T15:17:40.017Z,2.15
2023-03-19T15:22:34.765Z,1.10
2023-03-19T15:25:11.706Z,0.90
2023-03-19T15:27:38.814Z,1.02
2023-03-19T15:30:22.106Z,2.97
2023-03-19T15:33:02.929Z,2.47
2023-03-19T15:35:35.968Z,2.53
2023-03-19T15:38:04.189Z,0.70
2023-03-19T15:40:31.722Z,1.30
2023-03-19T15:42:59.426Z,0.77
2023-03-19T15:45:26.717Z,2.05
2023-03-19T15:47:58.554Z,1.92
2023-03-19T15:50:26.880Z,2.05
2023-03-19T15:52:55.165Z,0.82
2023-03-19T15:55:22.355Z,1.05
2023-03-19T15:57:49.651Z,0.70
2023-03-19T16:00:16.948Z,0.77
2023-03-19T16:02:44.398Z,1.10
2023-03-19T16:05:27.247Z,1.10
2023-03-19T16:08:01.078Z,0.95
2023-03-19T16:10:31.425Z,0.38
2023-03-19T16:13:03.279Z,1.13
2023-03-19T16:15:32.188Z,0.50
2023-03-19T16:18:20.550Z,0.98
2023-03-19T16:21:03.003Z,1.30
2023-03-19T16:23:33.938Z,1.10
2023-03-19T16:26:05.622Z,0.95
2023-03-19T16:28:32.808Z,3.88
2023-03-19T16:30:59.960Z,0.95
2023-03-19T16:33:27.643Z,0.47
2023-03-19T16:35:54.913Z,0.55
2023-03-19T16:38:25.145Z,1.40
2023-03-19T16:41:12.482Z,1.40
2023-03-19T16:43:39.553Z,2.25
2023-03-19T16:46:08.740Z,0.57
2023-03-19T16:48:35.831Z,1.20
2023-03-19T16:51:02.925Z,0.75
2023-03-19T16:53:31.975Z,1.25
2023-03-19T16:55:59.364Z,1.35
2023-03-19T16:58:30.627Z,1.80
2023-03-19T17:00:57.705Z,2.13
2023-03-19T17:03:26.032Z,1.20
2023-03-19T17:05:53.103Z,3.45
2023-03-19T17:08:21.773Z,1.35
2023-03-19T17:10:50.602Z,1.00
2023-03-19T17:13:21.650Z,5.93
2023-03-19T17:15:49.059Z,2.08
2023-03-19T17:18:23.146Z,1.83
2023-03-19T17:20:57.857Z,2.88
2023-03-19T17:23:26.947Z,2.72
2023-03-19T17:25:54.395Z,1.95
2023-03-19T17:28:21.496Z,2.83
2023-03-19T17:30:48.725Z,1.08
2023-03-19T17:33:26.281Z,2.78
2023-03-19T17:35:53.695Z,3.05
2023-03-19T17:38:21.201Z,4.35
2023-03-19T17:40:48.390Z,3.30
2023-03-19T17:43:15.496Z,4.70
2023-03-19T17:45:45.852Z,3.03
2023-03-19T17:48:17.531Z,4.03
2023-03-19T17:50:44.661Z,2.10
2023-03-19T17:53:12.225Z,6.22
2023-03-19T17:55:39.253Z,4.88
2023-03-19T17:58:06.917Z,3.45
2023-03-19T18:00:34.438Z,2.10
2023-03-19T18:03:01.794Z,3.25
2023-03-19T18:05:28.817Z,6.45
2023-03-19T18:07:56.216Z,5.20
2023-03-19T18:10:26.593Z,9.45
2023-03-19T18:12:54.788Z,23.40
2023-03-19T18:15:21.966Z,13.43
2023-03-19T18:17:49.749Z,11.18
2023-03-19T18:20:17.422Z,13.00
2023-03-19T18:22:44.616Z,25.77
2023-03-19T18:25:15.573Z,18.65
2023-03-19T18:27:42.739Z,15.35
2023-03-19T18:30:11.392Z,13.50
2023-03-19T18:32:40.828Z,12.68
2023-03-19T18:35:10.037Z,9.52
2023-03-19T18:37:37.090Z,15.40
2023-03-19T18:40:04.724Z,12.15
2023-03-19T18:42:31.751Z,24.40
2023-03-19T18:44:58.847Z,20.20
2023-03-19T18:47:25.881Z,17.40
2023-03-19T18:49:57.482Z,14.82
2023-03-19T18:52:24.562Z,17.80
2023-03-19T18:54:51.654Z,33.40
2023-03-19T18:57:18.732Z,26.27
2023-03-19T18:59:45.829Z,16.20
2023-03-19T19:02:20.297Z,10.77
2023-03-19T19:04:47.456Z,8.93
2023-03-19T19:07:15.209Z,9.98
2023-03-19T19:09:42.404Z,11.30
2023-03-19T19:12:10.943Z,6.40
2023-03-19T19:14:37.961Z,5.40
2023-03-19T19:17:06.061Z,3.50
2023-03-19T19:19:33.095Z,4.07
2023-03-19T19:22:00.188Z,2.42
2023-03-19T19:24:27.325Z,3.30
2023-03-19T19:26:54.564Z,2.80
2023-03-19T19:29:25.488Z,3.65
2023-03-19T19:31:53.306Z,3.50
2023-03-19T19:34:20.442Z,9.00
2023-03-19T19:36:47.792Z,8.07
2023-03-19T19:39:14.906Z,3.58
2023-03-19T19:41:43.616Z,5.57
2023-03-19T19:44:15.249Z,6.45
2023-03-19T19:46:42.322Z,5.80
2023-03-19T19:49:12.683Z,3.72
2023-03-19T19:51:39.830Z,4.10
2023-03-19T19:54:06.876Z,4.88
2023-03-19T19:56:33.939Z,2.28
2023-03-19T19:59:01.175Z,6.40
2023-03-19T20:01:28.315Z,3.33
2023-03-19T20:03:55.529Z,2.72
2023-03-19T20:06:22.609Z,3.95
2023-03-19T20:08:49.681Z,4.85
2023-03-19T20:11:23.514Z,4.07
2023-03-19T20:13:52.501Z,4.97
2023-03-19T20:16:19.783Z,5.32
2023-03-19T20:18:47.831Z,11.30
2023-03-19T20:21:15.038Z,7.82
2023-03-19T20:23:42.789Z,8.23
2023-03-19T20:26:16.940Z,4.40
2023-03-19T20:28:44.081Z,2.67
2023-03-19T20:31:18.327Z,5.15
2023-03-19T20:33:45.544Z,2.78
2023-03-19T20:36:15.767Z,8.20
2023-03-19T20:38:42.997Z,6.13
2023-03-19T20:41:28.117Z,5.25
2023-03-19T20:43:55.433Z,25.25
2023-03-19T20:46:23.212Z,6.80
2023-03-19T20:48:50.677Z,3.22
2023-03-19T20:51:19.480Z,3.42
2023-03-19T20:53:48.404Z,4.00
2023-03-19T20:56:16.034Z,4.72
2023-03-19T20:58:43.123Z,6.60
2023-03-19T21:01:11.641Z,8.98
2023-03-19T21:03:38.791Z,4.28
2023-03-19T21:06:06.835Z,4.40
2023-03-19T21:08:34.892Z,6.85
2023-03-19T21:11:02.088Z,3.78
2023-03-19T21:13:29.148Z,2.90
2023-03-19T21:15:56.437Z,2.65
2023-03-19T21:18:23.638Z,3.83
2023-03-19T21:20:53.798Z,4.05
2023-03-19T21:23:20.853Z,3.08
2023-03-19T21:25:48.176Z,2.42
2023-03-19T21:28:23.244Z,2.33
2023-03-19T21:30:50.460Z,2.88
2023-03-19T21:33:24.332Z,4.45
2023-03-19T21:35:51.970Z,2.40
2023-03-19T21:38:19.056Z,5.65
2023-03-19T21:40:46.138Z,3.80
2023-03-19T21:43:16.147Z,3.38
2023-03-19T21:45:43.860Z,4.28
2023-03-19T21:48:21.918Z,8.73
2023-03-19T21:50:50.059Z,5.80
2023-03-19T21:53:17.578Z,3.60
2023-03-19T21:55:44.671Z,5.70
2023-03-19T21:58:12.365Z,2.70
2023-03-19T22:00:39.540Z,6.65
2023-03-19T22:03:06.748Z,4.93
2023-03-19T22:05:34.249Z,5.65
2023-03-19T22:08:01.534Z,2.58
2023-03-19T22:10:28.924Z,4.38
2023-03-19T22:12:55.945Z,4.95
2023-03-19T22:15:25.906Z,6.45
2023-03-19T22:17:53.035Z,7.45
2023-03-19T22:20:24.153Z,16.38
2023-03-19T22:22:51.273Z,13.73
2023-03-19T22:25:19.260Z,10.10
2023-03-19T22:27:47.028Z,9.45
2023-03-19T22:30:22.018Z,11.85
2023-03-19T22:32:49.235Z,12.40
2023-03-19T22:35:17.161Z,12.30
2023-03-19T22:37:44.290Z,11.15
2023-03-19T22:40:12.526Z,10.57
2023-03-19T22:42:39.652Z,10.00
2023-03-19T22:45:07.666Z,10.32
2023-03-19T22:47:35.741Z,6.97
2023-03-19T22:50:02.988Z,11.75
2023-03-19T22:52:30.005Z,9.75
2023-03-19T22:54:57.074Z,9.90
2023-03-19T22:57:24.146Z,10.52
2023-03-19T22:59:51.389Z,9.02
2023-03-19T23:02:18.475Z,8.50
2023-03-19T23:04:45.724Z,7.72
2023-03-19T23:07:14.051Z,9.77
2023-03-19T23:09:41.718Z,9.00
2023-03-19T23:14:34.782Z,7.95
2023-03-19T23:17:06.513Z,7.95
2023-03-19T23:19:34.432Z,7.80
2023-03-19T23:22:02.541Z,8.45
2023-03-19T23:24:33.468Z,9.52
2023-03-19T23:27:00.791Z,10.32
2023-03-19T23:29:32.739Z,12.45
2023-03-19T23:31:59.936Z,10.65
2023-03-19T23:34:28.298Z,10.57
2023-03-19T23:36:56.082Z,11.93
2023-03-19T23:39:23.885Z,11.48
2023-03-19T23:41:53.559Z,8.27
2023-03-19T23:44:21.916Z,6.33
2023-03-19T23:46:49.508Z,10.48
2023-03-19T23:49:17.663Z,14.35
2023-03-19T23:51:44.695Z,9.05
2023-03-19T23:54:30.463Z,10.88
2023-03-19T23:56:59.659Z,10.85
2023-03-19T23:59:27.554Z,8.63
